createdAt,value
2018-12-21T00:01:06.857Z,83.57
2018-12-21T00:03:34.447Z,83.27
2018-12-21T00:06:01.991Z,83.17
2018-12-21T00:08:30.064Z,83.40
2018-12-21T00:10:57.594Z,83.19
2018-12-21T00:13:26.347Z,82.74
2018-12-21T00:15:53.978Z,82.80
2018-12-21T00:18:21.544Z,82.50
2018-12-21T00:20:49.112Z,82.97
2018-12-21T00:23:16.657Z,83.15
2018-12-21T00:25:44.450Z,83.25
2018-12-21T00:28:12.031Z,82.26
2018-12-21T00:30:38.574Z,83.00
2018-12-21T00:33:11.881Z,82.76
2018-12-21T00:35:44.568Z,82.70
2018-12-21T00:38:17.950Z,82.68
2018-12-21T00:40:50.652Z,82.91
2018-12-21T00:43:35.264Z,82.64
2018-12-21T00:46:09.651Z,82.05
2018-12-21T00:48:37.199Z,82.46
2018-12-21T00:51:04.910Z,82.04
2018-12-21T00:53:32.499Z,82.02
2018-12-21T00:56:00.218Z,82.25
2018-12-21T00:58:27.764Z,81.90
2018-12-21T01:00:55.307Z,81.90
2018-12-21T01:03:22.829Z,81.87
2018-12-21T01:05:50.499Z,81.89
2018-12-21T01:08:18.918Z,82.02
2018-12-21T01:10:46.447Z,81.50
2018-12-21T01:13:14.025Z,81.42
2018-12-21T01:15:41.613Z,81.64
2018-12-21T01:18:09.172Z,81.67
2018-12-21T01:20:37.256Z,81.33
2018-12-21T01:23:04.827Z,81.32
2018-12-21T01:25:32.820Z,81.59
2018-12-21T01:28:00.349Z,81.66
2018-12-21T01:30:27.928Z,81.21
2018-12-21T01:32:55.513Z,81.40
2018-12-21T01:35:23.080Z,81.04
2018-12-21T01:37:50.651Z,81.47
2018-12-21T01:40:18.165Z,80.60
2018-12-21T01:42:45.730Z,81.46
2018-12-21T01:45:13.269Z,80.50
2018-12-21T01:47:40.854Z,80.56
2018-12-21T01:50:08.383Z,80.54
2018-12-21T01:52:35.924Z,80.56
2018-12-21T01:55:03.533Z,80.06
2018-12-21T01:57:31.105Z,80.64
2018-12-21T01:59:58.672Z,80.06
2018-12-21T02:02:26.210Z,80.71
2018-12-21T02:04:53.756Z,80.44
2018-12-21T02:07:21.311Z,80.13
2018-12-21T02:09:48.846Z,80.06
2018-12-21T02:12:16.984Z,79.90
2018-12-21T02:14:44.533Z,80.18
2018-12-21T02:17:12.095Z,79.83
2018-12-21T02:19:39.678Z,80.57
2018-12-21T02:22:07.223Z,79.60
2018-12-21T02:24:34.749Z,80.36
2018-12-21T02:27:02.291Z,79.63
2018-12-21T02:29:29.848Z,79.80
2018-12-21T02:31:57.428Z,79.54
2018-12-21T02:34:24.959Z,79.96
2018-12-21T02:36:52.510Z,79.62
2018-12-21T02:39:20.073Z,79.07
2018-12-21T02:41:47.674Z,79.82
2018-12-21T02:44:15.694Z,79.53
2018-12-21T02:46:43.302Z,79.43
2018-12-21T02:49:10.878Z,79.22
2018-12-21T02:51:38.550Z,79.41
2018-12-21T02:54:06.096Z,79.34
2018-12-21T02:56:33.663Z,79.63
2018-12-21T02:59:01.242Z,79.21
2018-12-21T03:01:28.781Z,79.51
2018-12-21T03:03:56.339Z,79.43
2018-12-21T03:06:23.869Z,79.12
2018-12-21T03:08:51.441Z,78.58
2018-12-21T03:11:19.343Z,78.74
2018-12-21T03:13:46.915Z,79.66
2018-12-21T03:16:14.481Z,79.34
2018-12-21T03:18:44.125Z,78.92
2018-12-21T03:21:11.699Z,78.67
2018-12-21T03:23:39.354Z,78.57
2018-12-21T03:26:06.937Z,78.58
2018-12-21T03:28:34.543Z,78.95
2018-12-21T03:31:02.144Z,78.33
2018-12-21T03:33:29.807Z,78.15
2018-12-21T03:35:58.048Z,78.64
2018-12-21T03:38:25.760Z,78.31
2018-12-21T03:40:53.311Z,78.01
2018-12-21T03:43:20.848Z,78.45
2018-12-21T03:45:48.420Z,79.00
2018-12-21T03:48:15.979Z,78.45
2018-12-21T03:50:43.557Z,78.04
2018-12-21T03:53:11.101Z,77.68
2018-12-21T03:55:38.633Z,78.02
2018-12-21T03:58:06.221Z,78.17
2018-12-21T04:00:33.795Z,77.91
2018-12-21T04:03:01.378Z,77.51
2018-12-21T04:05:28.974Z,77.76
2018-12-21T04:07:56.498Z,77.91
2018-12-21T04:10:24.030Z,77.93
2018-12-21T04:12:51.572Z,77.98
2018-12-21T04:15:19.577Z,77.95
2018-12-21T04:17:47.167Z,77.63
2018-12-21T04:20:14.791Z,77.48
2018-12-21T04:22:42.451Z,77.12
2018-12-21T04:25:10.038Z,77.93
2018-12-21T04:27:37.566Z,77.48
2018-12-21T04:30:05.097Z,77.83
2018-12-21T04:32:33.644Z,78.03
2018-12-21T04:35:01.224Z,77.72
2018-12-21T04:37:28.904Z,77.33
2018-12-21T04:39:56.477Z,77.74
2018-12-21T04:42:24.354Z,78.22
2018-12-21T04:44:51.875Z,78.11
2018-12-21T04:47:19.415Z,77.93
2018-12-21T04:49:47.970Z,77.72
2018-12-21T04:52:15.508Z,79.05
2018-12-21T04:54:43.387Z,78.18
2018-12-21T04:57:10.960Z,78.08
2018-12-21T04:59:38.515Z,78.68
2018-12-21T05:02:06.204Z,79.04
2018-12-21T05:04:33.751Z,78.52
2018-12-21T05:07:01.319Z,78.37
2018-12-21T05:09:28.867Z,78.03
2018-12-21T05:11:56.407Z,77.85
2018-12-21T05:14:23.930Z,77.67
2018-12-21T05:16:51.479Z,77.54
2018-12-21T05:19:19.000Z,78.29
2018-12-21T05:21:46.546Z,78.18
2018-12-21T05:24:15.372Z,78.05
2018-12-21T05:26:42.907Z,79.05
2018-12-21T05:29:10.486Z,79.54
2018-12-21T05:31:38.043Z,79.13
2018-12-21T05:34:05.582Z,79.26
2018-12-21T05:36:33.126Z,79.81
2018-12-21T05:39:00.646Z,79.32
2018-12-21T05:41:28.200Z,79.81
2018-12-21T05:43:55.703Z,79.36
2018-12-21T05:46:23.259Z,79.34
2018-12-21T05:48:50.796Z,79.94
2018-12-21T05:51:20.270Z,79.93
2018-12-21T05:53:47.784Z,79.75
2018-12-21T05:56:15.356Z,79.84
2018-12-21T05:58:42.913Z,80.00
2018-12-21T06:01:10.910Z,79.34
2018-12-21T06:03:38.545Z,79.95
2018-12-21T06:06:06.192Z,80.56
2018-12-21T06:08:34.091Z,80.22
2018-12-21T06:11:01.692Z,80.14
2018-12-21T06:13:29.878Z,81.24
2018-12-21T06:15:59.558Z,81.42
2018-12-21T06:18:28.086Z,80.99
2018-12-21T06:20:55.586Z,81.50
2018-12-21T06:23:23.579Z,81.51
2018-12-21T06:25:51.131Z,81.64
2018-12-21T06:28:18.714Z,82.21
2018-12-21T06:30:46.758Z,82.22
2018-12-21T06:33:14.297Z,81.75
2018-12-21T06:35:41.859Z,81.84
2018-12-21T06:38:10.344Z,82.02
2018-12-21T06:40:37.894Z,82.12
2018-12-21T06:43:05.422Z,81.82
2018-12-21T06:45:33.947Z,82.42
2018-12-21T06:48:01.548Z,82.11
2018-12-21T06:50:29.104Z,82.09
2018-12-21T06:52:57.129Z,82.37
2018-12-21T06:55:24.702Z,82.60
2018-12-21T06:57:52.237Z,82.79
2018-12-21T07:00:20.567Z,82.79
2018-12-21T07:02:48.743Z,82.64
2018-12-21T07:05:16.255Z,82.46
2018-12-21T07:07:44.123Z,82.74
2018-12-21T07:10:11.646Z,82.88
2018-12-21T07:12:39.707Z,82.52
2018-12-21T07:15:07.715Z,82.89
2018-12-21T07:17:35.310Z,83.16
2018-12-21T07:20:02.879Z,82.27
2018-12-21T07:22:30.726Z,82.37
2018-12-21T07:24:59.925Z,83.03
2018-12-21T07:27:27.506Z,82.91
2018-12-21T07:29:55.305Z,83.09
2018-12-21T07:32:22.863Z,83.08
2018-12-21T07:34:51.630Z,83.04
2018-12-21T07:37:19.602Z,83.26
2018-12-21T07:39:47.175Z,83.22
2018-12-21T07:42:14.808Z,83.09
2018-12-21T07:44:44.585Z,82.56
2018-12-21T07:47:12.194Z,82.55
2018-12-21T07:49:39.774Z,82.40
2018-12-21T07:52:07.785Z,82.13
2018-12-21T07:54:37.058Z,82.47
2018-12-21T07:57:05.639Z,82.68
2018-12-21T07:59:33.711Z,82.97
2018-12-21T08:02:01.304Z,82.45
2018-12-21T08:04:30.317Z,82.59
2018-12-21T08:06:58.682Z,82.84
2018-12-21T08:09:27.108Z,82.86
2018-12-21T08:11:54.729Z,82.30
2018-12-21T08:14:22.715Z,82.31
2018-12-21T08:16:50.392Z,82.03
2018-12-21T08:19:18.026Z,82.36
2018-12-21T08:21:46.070Z,82.69
2018-12-21T08:24:13.695Z,83.03
2018-12-21T08:26:42.992Z,82.32
2018-12-21T08:29:10.958Z,83.14
2018-12-21T08:31:38.563Z,83.12
2018-12-21T08:34:06.280Z,82.40
2018-12-21T08:36:39.418Z,82.97
2018-12-21T08:39:07.069Z,82.82
2018-12-21T08:41:34.712Z,82.43
2018-12-21T08:44:03.661Z,82.82
2018-12-21T08:46:31.281Z,82.96
2018-12-21T08:48:58.982Z,82.66
2018-12-21T08:51:26.680Z,82.86
2018-12-21T08:53:54.313Z,82.34
2018-12-21T08:56:22.396Z,82.30
2018-12-21T08:58:51.385Z,82.31
2018-12-21T09:01:19.928Z,82.90
2018-12-21T09:03:49.262Z,82.00
2018-12-21T09:06:18.532Z,82.83
2018-12-21T09:08:46.492Z,82.36
2018-12-21T09:11:15.178Z,82.83
2018-12-21T09:13:43.355Z,82.54
2018-12-21T09:16:10.984Z,82.86
2018-12-21T09:18:38.951Z,83.16
2018-12-21T09:21:06.573Z,83.50
2018-12-21T09:23:34.212Z,83.22
2018-12-21T09:26:02.961Z,83.09
2018-12-21T09:28:30.561Z,82.99
2018-12-21T09:30:58.981Z,83.71
2018-12-21T09:33:27.113Z,83.23
2018-12-21T09:35:54.726Z,83.78
2018-12-21T09:38:22.326Z,83.39
2018-12-21T09:40:50.320Z,83.73
2018-12-21T09:43:19.041Z,83.67
2018-12-21T09:45:47.255Z,83.55
2018-12-21T09:48:15.947Z,83.60
2018-12-21T09:50:43.581Z,83.23
2018-12-21T09:53:11.712Z,83.29
2018-12-21T09:55:39.820Z,83.07
2018-12-21T09:58:07.428Z,83.83
2018-12-21T10:00:35.622Z,83.48
2018-12-21T10:03:04.482Z,84.12
2018-12-21T10:05:32.070Z,83.58
2018-12-21T10:07:59.712Z,83.82
2018-12-21T10:10:27.646Z,83.70
2018-12-21T10:12:55.299Z,83.56
2018-12-21T10:15:22.947Z,83.61
2018-12-21T10:17:51.637Z,83.74
2018-12-21T10:20:20.004Z,83.85
2018-12-21T10:22:47.888Z,83.64
2018-12-21T10:25:16.558Z,83.85
2018-12-21T10:27:44.161Z,83.61
2018-12-21T10:30:11.774Z,84.04
2018-12-21T10:32:39.855Z,83.84
2018-12-21T10:35:07.566Z,83.70
2018-12-21T10:37:35.177Z,83.77
2018-12-21T10:40:03.253Z,83.73
2018-12-21T10:42:31.552Z,83.79
2018-12-21T10:44:59.255Z,83.39
2018-12-21T10:47:27.616Z,83.30
2018-12-21T10:49:55.185Z,83.99
2018-12-21T10:52:22.797Z,83.75
2018-12-21T10:54:51.684Z,83.40
2018-12-21T10:57:19.322Z,83.67
2018-12-21T10:59:46.995Z,83.83
2018-12-21T11:02:15.121Z,84.10
2018-12-21T11:04:43.695Z,83.65
2018-12-21T11:07:11.561Z,83.60
2018-12-21T11:09:39.481Z,83.96
2018-12-21T11:12:07.097Z,84.21
2018-12-21T11:14:34.688Z,83.44
2018-12-21T11:17:02.699Z,83.82
2018-12-21T11:19:30.280Z,84.06
2018-12-21T11:21:57.896Z,83.91
2018-12-21T11:24:26.368Z,83.53
2018-12-21T11:26:53.996Z,83.81
2018-12-21T11:29:21.873Z,83.60
2018-12-21T11:31:50.603Z,84.24
2018-12-21T11:34:18.260Z,83.75
2018-12-21T11:36:45.908Z,83.72
2018-12-21T11:39:13.909Z,83.90
2018-12-21T11:41:41.508Z,83.61
2018-12-21T11:44:10.573Z,84.00
2018-12-21T11:46:38.481Z,84.00
2018-12-21T11:49:06.086Z,84.04
2018-12-21T11:51:34.430Z,83.94
2018-12-21T11:54:02.518Z,83.78
2018-12-21T11:56:30.133Z,83.27
2018-12-21T11:58:58.414Z,83.48
2018-12-21T12:01:26.313Z,83.44
2018-12-21T12:03:53.895Z,83.69
2018-12-21T12:06:21.524Z,83.78
2018-12-21T12:08:49.507Z,83.28
2018-12-21T12:11:17.588Z,82.88
2018-12-21T12:13:46.030Z,83.20
2018-12-21T12:16:14.136Z,83.00
2018-12-21T12:18:41.776Z,83.49
2018-12-21T12:21:10.254Z,82.87
2018-12-21T12:23:38.332Z,82.98
2018-12-21T12:26:07.082Z,83.18
2018-12-21T12:28:34.753Z,83.20
2018-12-21T12:31:02.786Z,83.47
2018-12-21T12:33:30.454Z,82.60
2018-12-21T12:35:58.056Z,83.51
2018-12-21T12:38:26.857Z,83.17
2018-12-21T12:40:54.457Z,82.48
2018-12-21T12:43:22.301Z,83.27
2018-12-21T12:45:50.427Z,82.72
2018-12-21T12:48:22.563Z,82.91
2018-12-21T12:50:50.191Z,83.48
2018-12-21T12:53:18.274Z,83.27
2018-12-21T12:55:45.923Z,83.51
2018-12-21T12:58:13.498Z,82.98
2018-12-21T13:00:41.442Z,82.93
2018-12-21T13:03:09.032Z,83.27
2018-12-21T13:05:36.695Z,83.26
2018-12-21T13:08:05.607Z,83.37
2018-12-21T13:10:35.409Z,82.71
2018-12-21T13:13:04.055Z,82.90
2018-12-21T13:15:32.165Z,82.51
2018-12-21T13:17:59.814Z,82.20
2018-12-21T13:20:27.497Z,82.75
2018-12-21T13:22:56.224Z,82.75
2018-12-21T13:25:24.015Z,83.12
2018-12-21T13:27:51.622Z,82.92
2018-12-21T13:30:19.575Z,83.40
2018-12-21T13:32:47.258Z,82.86
2018-12-21T13:35:16.515Z,83.37
2018-12-21T13:37:45.326Z,83.12
2018-12-21T13:40:14.533Z,83.75
2018-12-21T13:42:42.162Z,83.50
2018-12-21T13:45:10.901Z,83.11
2018-12-21T13:47:38.495Z,83.28
2018-12-21T13:50:08.133Z,83.34
2018-12-21T13:52:36.708Z,82.97
2018-12-21T13:55:04.328Z,83.32
2018-12-21T13:57:32.269Z,83.41
2018-12-21T14:00:00.009Z,83.42
2018-12-21T14:02:27.626Z,83.04
2018-12-21T14:04:55.582Z,83.76
2018-12-21T14:07:23.992Z,83.34
2018-12-21T14:09:51.629Z,83.09
2018-12-21T14:12:19.603Z,83.57
2018-12-21T14:14:47.243Z,83.39
2018-12-21T14:17:14.894Z,83.30
2018-12-21T14:19:42.854Z,82.42
2018-12-21T14:22:10.697Z,82.65
2018-12-21T14:24:40.721Z,82.17
2018-12-21T14:49:43.437Z,80.37
2018-12-21T15:00:36.304Z,79.32
2018-12-21T15:03:03.936Z,79.68
2018-12-21T15:05:33.454Z,79.45
2018-12-21T15:08:02.589Z,79.36
2018-12-21T15:10:30.334Z,78.67
2018-12-21T15:12:58.289Z,78.56
2018-12-21T15:15:26.031Z,78.40
2018-12-21T15:17:53.729Z,78.54
2018-12-21T15:20:21.688Z,78.37
2018-12-21T15:22:49.324Z,77.98
2018-12-21T15:25:17.649Z,78.16
2018-12-21T15:27:47.324Z,77.50
2018-12-21T15:30:15.622Z,77.87
2018-12-21T15:32:44.244Z,77.53
2018-12-21T15:35:12.217Z,77.62
2018-12-21T15:37:39.832Z,78.12
2018-12-21T15:40:07.494Z,77.07
2018-12-21T15:42:36.543Z,77.19
2018-12-21T15:45:04.165Z,77.35
2018-12-21T15:47:31.751Z,76.64
2018-12-21T15:50:10.125Z,76.42
2018-12-21T15:52:37.692Z,76.54
2018-12-21T15:55:05.274Z,76.13
2018-12-21T15:57:39.004Z,76.56
2018-12-21T16:00:07.642Z,76.14
2018-12-21T16:02:35.263Z,76.84
2018-12-21T16:05:04.093Z,76.44
2018-12-21T16:07:32.415Z,76.47
2018-12-21T16:10:00.002Z,75.61
2018-12-21T16:12:31.347Z,76.03
2018-12-21T16:15:00.585Z,75.42
2018-12-21T16:17:28.260Z,75.85
2018-12-21T16:19:58.159Z,75.77
2018-12-21T16:22:25.782Z,75.30
2018-12-21T16:24:54.660Z,75.31
2018-12-21T16:27:22.645Z,75.40
2018-12-21T16:29:50.276Z,75.54
2018-12-21T16:32:17.893Z,75.38
2018-12-21T16:34:46.808Z,75.23
2018-12-21T16:37:14.637Z,75.93
2018-12-21T16:39:43.973Z,75.38
2018-12-21T16:42:16.234Z,75.48
2018-12-21T16:44:45.952Z,74.55
2018-12-21T16:47:13.553Z,74.67
2018-12-21T16:49:46.535Z,74.88
2018-12-21T16:52:14.101Z,74.84
2018-12-21T16:54:42.052Z,74.84
2018-12-21T16:57:10.192Z,74.73
2018-12-21T16:59:37.816Z,74.74
2018-12-21T17:02:05.442Z,73.73
2018-12-21T17:04:35.548Z,74.21
2018-12-21T17:07:03.141Z,73.89
2018-12-21T17:09:30.781Z,74.06
2018-12-21T17:11:59.584Z,72.93
2018-12-21T17:14:27.192Z,73.09
2018-12-21T17:16:54.818Z,72.88
2018-12-21T17:19:22.729Z,72.51
2018-12-21T17:21:50.386Z,72.38
2018-12-21T17:24:17.953Z,72.63
2018-12-21T17:26:47.662Z,73.11
2018-12-21T17:29:16.979Z,72.38
2018-12-21T17:31:44.605Z,72.76
2018-12-21T17:34:12.589Z,72.87
2018-12-21T17:36:40.251Z,73.41
2018-12-21T17:39:09.063Z,72.99
2018-12-21T17:41:37.814Z,72.89
2018-12-21T17:44:05.429Z,72.74
2018-12-21T17:46:33.593Z,73.67
2018-12-21T17:49:01.910Z,73.18
2018-12-21T17:51:29.538Z,74.10
2018-12-21T17:53:57.205Z,74.42
2018-12-21T17:56:29.855Z,74.97
2018-12-21T17:58:54.942Z,74.96
2018-12-21T18:01:22.557Z,74.83
2018-12-21T18:03:51.729Z,75.03
2018-12-21T18:06:19.364Z,75.46
2018-12-21T18:08:47.865Z,75.91
2018-12-21T18:11:17.105Z,75.87
2018-12-21T18:13:44.669Z,76.02
2018-12-21T18:16:12.252Z,75.82
2018-12-21T18:18:42.331Z,76.26
2018-12-21T18:21:09.997Z,76.42
2018-12-21T18:23:37.602Z,76.24
2018-12-21T18:26:06.244Z,76.26
2018-12-21T18:31:17.749Z,76.77
2018-12-21T18:33:45.763Z,76.64
2018-12-21T18:36:13.415Z,75.92
2018-12-21T18:38:42.710Z,76.07
2018-12-21T18:41:11.597Z,76.02
2018-12-21T18:43:40.020Z,75.69
2018-12-21T18:46:08.675Z,75.22
2018-12-21T18:48:36.975Z,75.31
2018-12-21T18:51:04.619Z,75.07
2018-12-21T18:53:33.217Z,74.78
2018-12-21T18:56:03.034Z,74.73
2018-12-21T18:58:32.616Z,74.52
2018-12-21T19:01:00.220Z,73.56
2018-12-21T19:03:28.181Z,73.01
2018-12-21T19:05:55.813Z,73.37
2018-12-21T19:08:23.474Z,73.19
2018-12-21T19:10:54.197Z,72.51
2018-12-21T19:13:25.008Z,72.00
2018-12-21T19:15:52.593Z,72.09
2018-12-21T19:18:23.523Z,71.86
2018-12-21T19:20:52.333Z,71.72
2018-12-21T19:23:19.955Z,71.37
2018-12-21T19:25:48.786Z,71.81
2018-12-21T19:28:16.373Z,71.45
2018-12-21T19:30:45.532Z,71.34
2018-12-21T19:33:15.658Z,71.33
2018-12-21T19:35:44.655Z,70.81
2018-12-21T19:38:13.421Z,71.16
2018-12-21T19:40:41.512Z,71.20
2018-12-21T19:43:09.128Z,71.00
2018-12-21T19:45:37.566Z,70.93
2018-12-21T19:48:06.348Z,70.83
2018-12-21T19:50:35.294Z,71.14
2018-12-21T19:53:03.946Z,70.55
2018-12-21T19:55:31.940Z,70.26
2018-12-21T19:57:59.568Z,70.96
2018-12-21T20:00:28.634Z,70.53
2018-12-21T20:03:00.323Z,70.78
2018-12-21T20:05:27.911Z,70.17
2018-12-21T20:07:56.508Z,70.50
2018-12-21T20:10:25.907Z,70.32
2018-12-21T20:12:54.798Z,70.29
2018-12-21T20:15:22.912Z,70.52
2018-12-21T20:17:51.002Z,70.61
2018-12-21T20:20:19.506Z,70.37
2018-12-21T20:22:47.754Z,70.82
2018-12-21T20:25:16.784Z,70.09
2018-12-21T20:27:44.439Z,70.77
2018-12-21T20:30:12.676Z,70.34
2018-12-21T20:32:42.299Z,70.55
2018-12-21T20:35:10.662Z,70.84
2018-12-21T20:37:39.943Z,70.25
2018-12-21T20:40:08.639Z,70.46
2018-12-21T20:42:36.282Z,70.35
2018-12-21T20:45:05.094Z,70.44
2018-12-21T20:47:34.969Z,70.83
2018-12-21T20:50:03.349Z,71.01
2018-12-21T20:52:31.621Z,71.19
2018-12-21T20:54:59.626Z,70.37
2018-12-21T20:57:27.254Z,70.55
2018-12-21T20:59:55.900Z,70.70
2018-12-21T21:02:23.517Z,70.58
2018-12-21T21:04:51.120Z,70.23
2018-12-21T21:07:19.153Z,69.90
2018-12-21T21:09:46.719Z,70.69
2018-12-21T21:12:14.592Z,70.06
2018-12-21T21:14:43.572Z,69.93
2018-12-21T21:17:12.781Z,69.94
2018-12-21T21:19:40.634Z,70.71
2018-12-21T21:22:08.604Z,69.86
2018-12-21T21:24:36.363Z,70.11
2018-12-21T21:27:04.924Z,70.17
2018-12-21T21:29:33.009Z,70.36
2018-12-21T21:32:00.707Z,69.94
2018-12-21T21:34:28.720Z,70.40
2018-12-21T21:36:57.438Z,70.56
2018-12-21T21:39:25.207Z,70.70
2018-12-21T21:41:53.487Z,70.94
2018-12-21T21:44:21.688Z,70.74
2018-12-21T21:46:49.313Z,70.65
2018-12-21T21:49:16.883Z,70.35
2018-12-21T21:51:45.853Z,70.48
2018-12-21T21:54:13.473Z,71.03
2018-12-21T21:56:41.060Z,70.57
2018-12-21T21:59:09.065Z,71.01
2018-12-21T22:01:36.654Z,70.89
2018-12-21T22:04:04.295Z,70.61
2018-12-21T22:06:32.246Z,71.09
2018-12-21T22:08:59.859Z,71.27
2018-12-21T22:11:28.084Z,70.60
2018-12-21T22:13:56.060Z,70.72
2018-12-21T22:16:24.189Z,70.72
2018-12-21T22:18:54.244Z,71.31
2018-12-21T22:21:22.283Z,70.57
2018-12-21T22:23:50.880Z,71.01
2018-12-21T22:26:22.025Z,70.91
2018-12-21T22:28:50.034Z,71.36
2018-12-21T22:31:18.241Z,70.90
2018-12-21T22:33:45.816Z,71.21
2018-12-21T22:36:14.446Z,70.81
2018-12-21T22:38:43.407Z,71.22
2018-12-21T22:41:11.577Z,70.82
2018-12-21T22:46:15.545Z,71.26
2018-12-21T22:48:43.164Z,71.45
2018-12-21T22:51:12.789Z,71.01
2018-12-21T22:53:40.980Z,70.88
2018-12-21T22:56:09.074Z,70.57
2018-12-21T22:58:37.870Z,70.65
2018-12-21T23:01:06.083Z,71.12
2018-12-21T23:03:33.673Z,72.59
2018-12-21T23:06:01.722Z,73.06
2018-12-21T23:08:29.532Z,73.13
2018-12-21T23:10:57.669Z,73.11
2018-12-21T23:13:26.301Z,73.39
2018-12-21T23:15:54.617Z,74.07
2018-12-21T23:18:25.721Z,73.40
2018-12-21T23:20:53.701Z,73.82
2018-12-21T23:23:21.301Z,73.63
2018-12-21T23:25:49.708Z,73.71
2018-12-21T23:30:52.521Z,73.62
2018-12-21T23:33:21.550Z,73.13
2018-12-21T23:35:49.490Z,73.60
2018-12-21T23:38:17.153Z,73.57
2018-12-21T23:40:44.752Z,73.49
2018-12-21T23:43:13.832Z,72.53
2018-12-21T23:45:41.423Z,72.85
2018-12-21T23:48:10.364Z,73.27
2018-12-21T23:50:39.856Z,72.87
2018-12-21T23:53:07.428Z,72.86
2018-12-21T23:55:35.252Z,72.84
2018-12-21T23:58:03.284Z,72.52
